Dart — OUOV2 — position and weather

sailwx.info

Track history (hours):
 
Tides and Currents Weather Stations Pressure Air Temp Water Temp Dewpoint Dewpoint Depression Visibility Wind Speed Wind Dir Waves Ship Positions

Dart

Last reported at 2015-Mar-28 11:14 UTC. Time now 2015-Mar-28 17:49 UTC.
Position N 66°07' E 012°45'.

Length 66 m; draft 4 m.

Type: Tanker. MMSI: 219416000.

Date/timePositionNaut miles runAvg speedWind from/ knotsBaromVisibWave heightAir tempDewpointWater temp
2015-Mar-28 11:14N 66°07' E 012°45'50 1.4
2015-Mar-27 00:15N 65°20' E 012°02'710.6
2015-Mar-26 23:33N 65°13' E 011°54'1010.3
2015-Mar-26 22:33N 65°04' E 011°45'10 9.5
2015-Mar-26 21:33N 64°57' E 011°29'10 9.8
2015-Mar-26 20:33N 64°51' E 011°12'11 9.4
2015-Mar-26 19:22N 64°43' E 010°53'354 7.9
2015-Mar-24 22:33N 59°26' E 005°14'2 1.4
2015-Mar-24 21:19N 59°25' E 005°14'0 0.0
2015-Mar-24 19:10N 59°25' E 005°14'0 0.0
2015-Mar-24 18:31N 59°25' E 005°14'0 0.0
2015-Mar-24 17:31N 59°25' E 005°14'0 0.0
2015-Mar-24 16:22N 59°25' E 005°14'0 0.0
2015-Mar-24 15:32N 59°25' E 005°14'0 0.0
2015-Mar-24 14:28N 59°25' E 005°14'0 0.0
2015-Mar-24 13:19N 59°25' E 005°14'0 0.0
2015-Mar-24 12:25N 59°25' E 005°14'0 0.0
2015-Mar-24 11:31N 59°25' E 005°14'0 0.0
2015-Mar-24 10:31N 59°25' E 005°14'0 0.0
2015-Mar-24 09:32N 59°25' E 005°14'0 0.0
2015-Mar-24 08:31N 59°25' E 005°14'3 3.0
2015-Mar-24 07:33N 59°23' E 005°18'9 9.0
2015-Mar-24 06:33N 59°14' E 005°21'8 8.0
2015-Mar-24 05:33N 59°07' E 005°29'8 8.3
2015-Mar-24 04:33N 59°01' E 005°41'6 5.8
2015-Mar-24 03:33N 58°56' E 005°47'3 3.1
2015-Mar-24 02:33N 58°53' E 005°45'0 0.0
2015-Mar-24 01:33N 58°53' E 005°45'0 0.0
2015-Mar-24 00:33N 58°53' E 005°45'0 0.0
2015-Mar-23 23:34N 58°53' E 005°45'0 0.0
2015-Mar-23 22:34N 58°53' E 005°45'0 0.0
2015-Mar-23 21:33N 58°53' E 005°45'0 0.0
2015-Mar-23 20:33N 58°53' E 005°45'0 0.0
2015-Mar-23 19:33N 58°53' E 005°45'0 0.0
2015-Mar-23 18:33N 58°53' E 005°45'0 0.0
2015-Mar-23 17:33N 58°53' E 005°45'0 0.0
2015-Mar-23 16:33N 58°53' E 005°45'0 0.0
2015-Mar-23 15:34N 58°53' E 005°45'4 4.0
2015-Mar-23 14:33N 58°57' E 005°47'7 6.6
2015-Mar-23 13:34N 59°02' E 005°38'9 9.4
2015-Mar-23 12:34N 59°08' E 005°24'9 8.7
2015-Mar-23 11:29N 59°17' E 005°20'9 9.5
2015-Mar-23 10:33N 59°25' E 005°14'72 7.2
2015-Mar-23 00:31N 60°37' E 004°53'  
2015-Mar-19 01:25N 59°30' E 005°13'5 2.3
2015-Mar-18 23:06N 59°25' E 005°14'0 0.0
2015-Mar-18 20:24N 59°25' E 005°14'0 0.0
2015-Mar-18 19:17N 59°25' E 005°14'6 7.6
2015-Mar-18 18:26N 59°19' E 005°20'910.0
2015-Mar-18 17:34N 59°10' E 005°22'9 9.3
2015-Mar-18 16:34N 59°03' E 005°33'7 7.4
2015-Mar-18 15:33N 58°56' E 005°36'0 0.0
2015-Mar-18 14:33N 58°56' E 005°36'0 0.0
2015-Mar-18 13:33N 58°56' E 005°36'0 0.0
2015-Mar-18 12:33N 58°56' E 005°36'0 0.0
2015-Mar-18 11:33N 58°56' E 005°36'  
Track history (hours):
 
Tides and Currents Weather Stations Pressure Air Temp Water Temp Dewpoint Dewpoint Depression Visibility Wind Speed Wind Dir Waves Ship Positions

Dart

Last reported at 2015-Mar-28 11:14 UTC. Time now 2015-Mar-28 17:49 UTC.
Position N 66°07' E 012°45'.

Length 66 m; draft 4 m.

Type: Tanker. MMSI: 219416000.

Date/timePositionNaut miles runAvg speedWind from/ knotsBaromVisibWave heightAir tempDewpointWater temp
2015-Mar-28 11:14N 66°07' E 012°45'50 1.4
2015-Mar-27 00:15N 65°20' E 012°02'710.6
2015-Mar-26 23:33N 65°13' E 011°54'1010.3
2015-Mar-26 22:33N 65°04' E 011°45'10 9.5
2015-Mar-26 21:33N 64°57' E 011°29'10 9.8
2015-Mar-26 20:33N 64°51' E 011°12'11 9.4
2015-Mar-26 19:22N 64°43' E 010°53'354 7.9
2015-Mar-24 22:33N 59°26' E 005°14'2 1.4
2015-Mar-24 21:19N 59°25' E 005°14'0 0.0
2015-Mar-24 19:10N 59°25' E 005°14'0 0.0
2015-Mar-24 18:31N 59°25' E 005°14'0 0.0
2015-Mar-24 17:31N 59°25' E 005°14'0 0.0
2015-Mar-24 16:22N 59°25' E 005°14'0 0.0
2015-Mar-24 15:32N 59°25' E 005°14'0 0.0
2015-Mar-24 14:28N 59°25' E 005°14'0 0.0
2015-Mar-24 13:19N 59°25' E 005°14'0 0.0
2015-Mar-24 12:25N 59°25' E 005°14'0 0.0
2015-Mar-24 11:31N 59°25' E 005°14'0 0.0
2015-Mar-24 10:31N 59°25' E 005°14'0 0.0
2015-Mar-24 09:32N 59°25' E 005°14'0 0.0
2015-Mar-24 08:31N 59°25' E 005°14'3 3.0
2015-Mar-24 07:33N 59°23' E 005°18'9 9.0
2015-Mar-24 06:33N 59°14' E 005°21'8 8.0
2015-Mar-24 05:33N 59°07' E 005°29'8 8.3
2015-Mar-24 04:33N 59°01' E 005°41'6 5.8
2015-Mar-24 03:33N 58°56' E 005°47'3 3.1
2015-Mar-24 02:33N 58°53' E 005°45'0 0.0
2015-Mar-24 01:33N 58°53' E 005°45'0 0.0
2015-Mar-24 00:33N 58°53' E 005°45'0 0.0
2015-Mar-23 23:34N 58°53' E 005°45'0 0.0
2015-Mar-23 22:34N 58°53' E 005°45'0 0.0
2015-Mar-23 21:33N 58°53' E 005°45'0 0.0
2015-Mar-23 20:33N 58°53' E 005°45'0 0.0
2015-Mar-23 19:33N 58°53' E 005°45'0 0.0
2015-Mar-23 18:33N 58°53' E 005°45'0 0.0
2015-Mar-23 17:33N 58°53' E 005°45'0 0.0
2015-Mar-23 16:33N 58°53' E 005°45'0 0.0
2015-Mar-23 15:34N 58°53' E 005°45'4 4.0
2015-Mar-23 14:33N 58°57' E 005°47'7 6.6
2015-Mar-23 13:34N 59°02' E 005°38'9 9.4
2015-Mar-23 12:34N 59°08' E 005°24'9 8.7
2015-Mar-23 11:29N 59°17' E 005°20'9 9.5
2015-Mar-23 10:33N 59°25' E 005°14'72 7.2
2015-Mar-23 00:31N 60°37' E 004°53'  
2015-Mar-19 01:25N 59°30' E 005°13'5 2.3
2015-Mar-18 23:06N 59°25' E 005°14'0 0.0
2015-Mar-18 20:24N 59°25' E 005°14'0 0.0
2015-Mar-18 19:17N 59°25' E 005°14'6 7.6
2015-Mar-18 18:26N 59°19' E 005°20'910.0
2015-Mar-18 17:34N 59°10' E 005°22'9 9.3
2015-Mar-18 16:34N 59°03' E 005°33'7 7.4
2015-Mar-18 15:33N 58°56' E 005°36'0 0.0
2015-Mar-18 14:33N 58°56' E 005°36'0 0.0
2015-Mar-18 13:33N 58°56' E 005°36'0 0.0
2015-Mar-18 12:33N 58°56' E 005°36'0 0.0
2015-Mar-18 11:33N 58°56' E 005°36'  

Dump ship's entire track history